Malcolm Mc Kinnon Airport Brunswick US
ICAO: KSSI
IATA: SSI
Category: Medium
Scheduled Services: No

Elevation: 19 ft
TransAlt. 18000 ft.

Airport Communications:
ASOS:118.525
JACKSONVILLE CNTR:126.75
CTAF/UNICOM:123.05

KSSI Zoom In..

If you have problems with the map follow the link
https://www.worldairports.se/pages/airport.php?
ICAO=KSSI

Runways:

(A) RW 04 length 5584 ft width 100 ft
---- / hdg 41

(B) RW 16 length 3313 ft width 75 ft
---- / hdg 159

(C) RW 22 length 5584 ft width 100 ft
---- / hdg 221

(D) RW 34 length 3313 ft width 75 ft
---- / hdg 339

Location; KSSI
Day. 18 / Time. 05.53 Zulu
* Altimeter: 30.17
* Temperature: 26° c. 78.8°f.
* Wind from: 350° Speed 06 kn.
Dewpoint: 21° c.
Visibility: 10 Statute Miles.
Clouds: Few 4200 ft.
Clouds: Overcast 6500 ft.

KSSI 180553Z AUTO 35006KT 10SM FEW042 OVC065 26/21 A3017 RMK AO2 SLP217 T02560211 10278 20256 50002


Wind From 350°
Speed 06 kn.

 
 
jpsmedia.com for Web Design worldairports.se 2018   terms of use